sensor_id;sensor_type;location;lat;lon;timestamp;P1;durP1;ratioP1;P2;durP2;ratioP2
17151;SDS011;8691;50.828;4.700;2023-02-11T00:03:56;16.55;;;10.10;;
17151;SDS011;8691;50.828;4.700;2023-02-11T00:06:23;15.50;;;9.90;;
17151;SDS011;8691;50.828;4.700;2023-02-11T00:08:50;17.15;;;9.43;;
17151;SDS011;8691;50.828;4.700;2023-02-11T00:11:17;16.60;;;9.55;;
17151;SDS011;8691;50.828;4.700;2023-02-11T00:13:44;15.77;;;9.82;;
17151;SDS011;8691;50.828;4.700;2023-02-11T00:16:13;13.25;;;9.07;;
17151;SDS011;8691;50.828;4.700;2023-02-11T00:18:38;14.40;;;9.32;;
17151;SDS011;8691;50.828;4.700;2023-02-11T00:21:09;11.65;;;8.90;;
17151;SDS011;8691;50.828;4.700;2023-02-11T00:23:35;16.65;;;9.18;;
17151;SDS011;8691;50.828;4.700;2023-02-11T00:26:03;17.42;;;9.68;;
17151;SDS011;8691;50.828;4.700;2023-02-11T00:28:30;12.00;;;8.07;;
17151;SDS011;8691;50.828;4.700;2023-02-11T00:30:58;16.60;;;9.77;;
17151;SDS011;8691;50.828;4.700;2023-02-11T00:33:25;16.07;;;7.93;;
17151;SDS011;8691;50.828;4.700;2023-02-11T00:35:53;16.50;;;9.57;;
17151;SDS011;8691;50.828;4.700;2023-02-11T00:38:19;16.90;;;9.90;;
17151;SDS011;8691;50.828;4.700;2023-02-11T00:40:46;15.30;;;9.83;;
17151;SDS011;8691;50.828;4.700;2023-02-11T00:43:13;16.73;;;9.53;;
17151;SDS011;8691;50.828;4.700;2023-02-11T00:45:40;17.37;;;9.73;;
17151;SDS011;8691;50.828;4.700;2023-02-11T00:48:07;17.97;;;9.90;;
17151;SDS011;8691;50.828;4.700;2023-02-11T00:50:34;14.80;;;9.17;;
17151;SDS011;8691;50.828;4.700;2023-02-11T00:53:01;17.07;;;9.80;;
17151;SDS011;8691;50.828;4.700;2023-02-11T00:55:28;17.80;;;9.10;;
17151;SDS011;8691;50.828;4.700;2023-02-11T00:57:55;14.65;;;9.15;;
17151;SDS011;8691;50.828;4.700;2023-02-11T01:00:22;14.18;;;9.82;;
17151;SDS011;8691;50.828;4.700;2023-02-11T01:02:49;16.35;;;9.30;;
17151;SDS011;8691;50.828;4.700;2023-02-11T01:05:16;13.10;;;8.57;;
17151;SDS011;8691;50.828;4.700;2023-02-11T01:07:43;14.70;;;9.00;;
17151;SDS011;8691;50.828;4.700;2023-02-11T01:10:10;16.60;;;9.60;;
17151;SDS011;8691;50.828;4.700;2023-02-11T01:12:37;13.47;;;9.20;;
17151;SDS011;8691;50.828;4.700;2023-02-11T01:15:04;18.43;;;9.87;;
17151;SDS011;8691;50.828;4.700;2023-02-11T01:17:31;16.73;;;9.27;;
17151;SDS011;8691;50.828;4.700;2023-02-11T01:19:58;13.12;;;8.85;;
17151;SDS011;8691;50.828;4.700;2023-02-11T01:22:25;13.98;;;9.20;;
17151;SDS011;8691;50.828;4.700;2023-02-11T01:24:51;14.62;;;9.50;;
17151;SDS011;8691;50.828;4.700;2023-02-11T01:27:18;14.75;;;9.27;;
17151;SDS011;8691;50.828;4.700;2023-02-11T01:29:46;18.10;;;10.50;;
17151;SDS011;8691;50.828;4.700;2023-02-11T01:32:13;17.47;;;10.10;;
17151;SDS011;8691;50.828;4.700;2023-02-11T01:34:40;15.62;;;9.65;;
17151;SDS011;8691;50.828;4.700;2023-02-11T01:37:07;20.07;;;10.57;;
17151;SDS011;8691;50.828;4.700;2023-02-11T01:39:34;16.43;;;10.20;;
17151;SDS011;8691;50.828;4.700;2023-02-11T01:42:01;15.73;;;10.03;;
17151;SDS011;8691;50.828;4.700;2023-02-11T01:44:35;15.80;;;10.23;;
17151;SDS011;8691;50.828;4.700;2023-02-11T01:47:01;15.87;;;9.73;;
17151;SDS011;8691;50.828;4.700;2023-02-11T01:49:32;16.27;;;10.23;;
17151;SDS011;8691;50.828;4.700;2023-02-11T01:52:06;13.52;;;9.68;;
17151;SDS011;8691;50.828;4.700;2023-02-11T01:54:35;15.00;;;9.90;;
17151;SDS011;8691;50.828;4.700;2023-02-11T01:57:20;12.30;;;8.27;;
17151;SDS011;8691;50.828;4.700;2023-02-11T02:03:16;15.43;;;10.02;;
17151;SDS011;8691;50.828;4.700;2023-02-11T02:04:59;18.50;;;10.00;;
17151;SDS011;8691;50.828;4.700;2023-02-11T02:07:27;14.90;;;9.57;;
17151;SDS011;8691;50.828;4.700;2023-02-11T02:09:58;21.10;;;10.55;;
17151;SDS011;8691;50.828;4.700;2023-02-11T02:12:20;17.02;;;9.62;;
17151;SDS011;8691;50.828;4.700;2023-02-11T02:14:47;16.93;;;10.20;;
17151;SDS011;8691;50.828;4.700;2023-02-11T02:17:23;14.43;;;9.97;;
17151;SDS011;8691;50.828;4.700;2023-02-11T02:22:36;15.93;;;10.48;;
17151;SDS011;8691;50.828;4.700;2023-02-11T02:25:08;14.33;;;7.77;;
17151;SDS011;8691;50.828;4.700;2023-02-11T02:27:37;15.70;;;9.70;;
17151;SDS011;8691;50.828;4.700;2023-02-11T02:32:49;15.90;;;9.80;;
17151;SDS011;8691;50.828;4.700;2023-02-11T02:35:22;17.77;;;10.07;;
17151;SDS011;8691;50.828;4.700;2023-02-11T02:38:02;16.00;;;9.80;;
17151;SDS011;8691;50.828;4.700;2023-02-11T02:40:31;13.18;;;9.43;;
17151;SDS011;8691;50.828;4.700;2023-02-11T02:42:57;15.20;;;9.62;;
17151;SDS011;8691;50.828;4.700;2023-02-11T02:45:24;14.30;;;9.95;;
17151;SDS011;8691;50.828;4.700;2023-02-11T02:47:51;14.88;;;9.90;;
17151;SDS011;8691;50.828;4.700;2023-02-11T02:50:20;15.40;;;9.05;;
17151;SDS011;8691;50.828;4.700;2023-02-11T02:52:51;17.23;;;10.12;;
17151;SDS011;8691;50.828;4.700;2023-02-11T03:06:16;16.00;;;9.35;;
17151;SDS011;8691;50.828;4.700;2023-02-11T03:08:58;13.20;;;9.55;;
17151;SDS011;8691;50.828;4.700;2023-02-11T03:11:22;13.93;;;8.83;;
17151;SDS011;8691;50.828;4.700;2023-02-11T03:13:50;16.83;;;8.90;;
17151;SDS011;8691;50.828;4.700;2023-02-11T03:16:18;14.27;;;9.12;;
17151;SDS011;8691;50.828;4.700;2023-02-11T03:18:48;14.43;;;8.77;;
17151;SDS011;8691;50.828;4.700;2023-02-11T03:21:11;13.57;;;9.18;;
17151;SDS011;8691;50.828;4.700;2023-02-11T03:23:39;14.48;;;8.55;;
17151;SDS011;8691;50.828;4.700;2023-02-11T03:26:11;12.43;;;8.70;;
17151;SDS011;8691;50.828;4.700;2023-02-11T03:28:52;12.23;;;8.68;;
17151;SDS011;8691;50.828;4.700;2023-02-11T03:31:27;13.68;;;8.75;;
17151;SDS011;8691;50.828;4.700;2023-02-11T03:34:13;14.00;;;8.75;;
17151;SDS011;8691;50.828;4.700;2023-02-11T03:36:39;16.00;;;9.73;;
17151;SDS011;8691;50.828;4.700;2023-02-11T03:39:05;14.27;;;8.67;;
17151;SDS011;8691;50.828;4.700;2023-02-11T03:41:31;13.93;;;8.70;;
17151;SDS011;8691;50.828;4.700;2023-02-11T03:43:59;15.93;;;9.27;;
17151;SDS011;8691;50.828;4.700;2023-02-11T03:46:28;14.62;;;9.68;;
17151;SDS011;8691;50.828;4.700;2023-02-11T03:48:55;14.12;;;9.07;;
17151;SDS011;8691;50.828;4.700;2023-02-11T03:51:20;13.12;;;8.68;;
17151;SDS011;8691;50.828;4.700;2023-02-11T03:53:47;15.27;;;9.27;;
17151;SDS011;8691;50.828;4.700;2023-02-11T03:56:18;15.18;;;9.40;;
17151;SDS011;8691;50.828;4.700;2023-02-11T03:58:45;16.00;;;9.40;;
17151;SDS011;8691;50.828;4.700;2023-02-11T04:01:11;14.23;;;9.83;;
17151;SDS011;8691;50.828;4.700;2023-02-11T04:03:38;17.40;;;9.90;;
17151;SDS011;8691;50.828;4.700;2023-02-11T04:06:05;15.80;;;9.97;;
17151;SDS011;8691;50.828;4.700;2023-02-11T04:08:32;15.07;;;9.50;;
17151;SDS011;8691;50.828;4.700;2023-02-11T04:10:59;17.20;;;9.80;;
17151;SDS011;8691;50.828;4.700;2023-02-11T04:13:26;15.73;;;9.70;;
17151;SDS011;8691;50.828;4.700;2023-02-11T04:15:53;18.67;;;10.30;;
17151;SDS011;8691;50.828;4.700;2023-02-11T04:18:20;16.33;;;10.20;;
17151;SDS011;8691;50.828;4.700;2023-02-11T04:20:49;17.65;;;10.68;;
17151;SDS011;8691;50.828;4.700;2023-02-11T04:23:15;18.57;;;8.33;;
17151;SDS011;8691;50.828;4.700;2023-02-11T04:25:42;14.53;;;10.43;;
17151;SDS011;8691;50.828;4.700;2023-02-11T04:28:08;16.48;;;10.75;;
17151;SDS011;8691;50.828;4.700;2023-02-11T04:30:35;15.95;;;10.30;;
17151;SDS011;8691;50.828;4.700;2023-02-11T04:33:02;17.30;;;10.55;;
17151;SDS011;8691;50.828;4.700;2023-02-11T04:35:29;15.65;;;10.45;;
17151;SDS011;8691;50.828;4.700;2023-02-11T04:37:56;18.00;;;10.52;;
17151;SDS011;8691;50.828;4.700;2023-02-11T04:40:23;17.88;;;11.40;;
17151;SDS011;8691;50.828;4.700;2023-02-11T04:42:50;16.08;;;11.02;;
17151;SDS011;8691;50.828;4.700;2023-02-11T04:45:17;16.70;;;11.40;;
17151;SDS011;8691;50.828;4.700;2023-02-11T04:47:43;15.57;;;11.55;;
17151;SDS011;8691;50.828;4.700;2023-02-11T04:50:10;16.70;;;11.93;;
17151;SDS011;8691;50.828;4.700;2023-02-11T04:52:37;15.73;;;11.60;;
17151;SDS011;8691;50.828;4.700;2023-02-11T04:55:04;15.00;;;9.80;;
17151;SDS011;8691;50.828;4.700;2023-02-11T04:57:31;14.90;;;11.10;;
17151;SDS011;8691;50.828;4.700;2023-02-11T04:59:58;17.40;;;12.23;;
17151;SDS011;8691;50.828;4.700;2023-02-11T05:02:25;17.63;;;12.93;;
17151;SDS011;8691;50.828;4.700;2023-02-11T05:04:52;16.67;;;11.95;;
17151;SDS011;8691;50.828;4.700;2023-02-11T05:07:20;19.87;;;13.20;;
17151;SDS011;8691;50.828;4.700;2023-02-11T05:09:46;16.23;;;13.17;;
17151;SDS011;8691;50.828;4.700;2023-02-11T05:12:13;16.73;;;13.33;;
17151;SDS011;8691;50.828;4.700;2023-02-11T05:14:42;18.40;;;13.43;;
17151;SDS011;8691;50.828;4.700;2023-02-11T05:17:09;19.15;;;12.95;;
17151;SDS011;8691;50.828;4.700;2023-02-11T05:19:36;18.88;;;13.32;;
17151;SDS011;8691;50.828;4.700;2023-02-11T05:22:02;19.83;;;13.35;;
17151;SDS011;8691;50.828;4.700;2023-02-11T05:24:32;17.83;;;13.93;;
17151;SDS011;8691;50.828;4.700;2023-02-11T05:26:59;19.97;;;14.60;;
17151;SDS011;8691;50.828;4.700;2023-02-11T05:29:26;16.37;;;11.23;;
17151;SDS011;8691;50.828;4.700;2023-02-11T05:31:53;20.25;;;13.88;;
17151;SDS011;8691;50.828;4.700;2023-02-11T05:34:20;21.30;;;15.57;;
17151;SDS011;8691;50.828;4.700;2023-02-11T05:36:47;20.25;;;15.23;;
17151;SDS011;8691;50.828;4.700;2023-02-11T05:39:15;22.75;;;16.42;;
17151;SDS011;8691;50.828;4.700;2023-02-11T05:41:42;23.38;;;16.40;;
17151;SDS011;8691;50.828;4.700;2023-02-11T05:44:09;22.95;;;16.45;;
17151;SDS011;8691;50.828;4.700;2023-02-11T05:46:36;23.83;;;17.00;;
17151;SDS011;8691;50.828;4.700;2023-02-11T05:49:03;27.20;;;17.07;;
17151;SDS011;8691;50.828;4.700;2023-02-11T05:51:30;24.23;;;17.20;;
17151;SDS011;8691;50.828;4.700;2023-02-11T05:53:57;23.57;;;17.70;;
17151;SDS011;8691;50.828;4.700;2023-02-11T05:56:24;23.73;;;18.03;;
17151;SDS011;8691;50.828;4.700;2023-02-11T05:58:51;28.13;;;18.57;;
17151;SDS011;8691;50.828;4.700;2023-02-11T06:01:18;25.35;;;18.88;;
17151;SDS011;8691;50.828;4.700;2023-02-11T06:03:45;24.45;;;17.62;;
17151;SDS011;8691;50.828;4.700;2023-02-11T06:06:12;25.17;;;17.83;;
17151;SDS011;8691;50.828;4.700;2023-02-11T06:08:39;24.90;;;19.02;;
17151;SDS011;8691;50.828;4.700;2023-02-11T06:11:06;24.83;;;18.70;;
17151;SDS011;8691;50.828;4.700;2023-02-11T06:13:34;28.08;;;19.15;;
17151;SDS011;8691;50.828;4.700;2023-02-11T06:16:01;27.70;;;18.20;;
17151;SDS011;8691;50.828;4.700;2023-02-11T06:18:27;24.60;;;19.15;;
17151;SDS011;8691;50.828;4.700;2023-02-11T06:20:54;26.33;;;19.17;;
17151;SDS011;8691;50.828;4.700;2023-02-11T06:23:21;30.53;;;19.27;;
17151;SDS011;8691;50.828;4.700;2023-02-11T06:25:48;29.27;;;19.27;;
17151;SDS011;8691;50.828;4.700;2023-02-11T06:28:15;24.30;;;19.37;;
17151;SDS011;8691;50.828;4.700;2023-02-11T06:30:42;27.70;;;18.98;;
17151;SDS011;8691;50.828;4.700;2023-02-11T06:33:09;26.30;;;20.15;;
17151;SDS011;8691;50.828;4.700;2023-02-11T06:35:38;29.88;;;20.65;;
17151;SDS011;8691;50.828;4.700;2023-02-11T06:38:05;29.33;;;20.40;;
17151;SDS011;8691;50.828;4.700;2023-02-11T06:40:32;24.83;;;20.12;;
17151;SDS011;8691;50.828;4.700;2023-02-11T06:42:59;27.97;;;21.43;;
17151;SDS011;8691;50.828;4.700;2023-02-11T06:45:26;28.00;;;20.87;;
17151;SDS011;8691;50.828;4.700;2023-02-11T06:47:53;26.93;;;20.43;;
17151;SDS011;8691;50.828;4.700;2023-02-11T06:50:20;29.40;;;20.47;;
17151;SDS011;8691;50.828;4.700;2023-02-11T06:52:47;29.33;;;21.25;;
17151;SDS011;8691;50.828;4.700;2023-02-11T06:55:14;29.05;;;20.67;;
17151;SDS011;8691;50.828;4.700;2023-02-11T06:57:40;28.40;;;20.25;;
17151;SDS011;8691;50.828;4.700;2023-02-11T07:00:07;28.20;;;20.80;;
17151;SDS011;8691;50.828;4.700;2023-02-11T07:02:34;28.52;;;20.88;;
17151;SDS011;8691;50.828;4.700;2023-02-11T07:05:01;32.28;;;21.25;;
17151;SDS011;8691;50.828;4.700;2023-02-11T07:07:28;29.42;;;20.95;;
17151;SDS011;8691;50.828;4.700;2023-02-11T07:09:55;27.43;;;21.10;;
17151;SDS011;8691;50.828;4.700;2023-02-11T07:12:22;27.80;;;21.70;;
17151;SDS011;8691;50.828;4.700;2023-02-11T07:14:49;29.95;;;21.73;;
17151;SDS011;8691;50.828;4.700;2023-02-11T07:17:16;29.70;;;21.60;;
17151;SDS011;8691;50.828;4.700;2023-02-11T07:19:43;29.08;;;21.65;;
17151;SDS011;8691;50.828;4.700;2023-02-11T07:22:09;33.72;;;22.88;;
17151;SDS011;8691;50.828;4.700;2023-02-11T07:24:36;32.70;;;22.62;;
17151;SDS011;8691;50.828;4.700;2023-02-11T07:27:03;32.67;;;22.60;;
17151;SDS011;8691;50.828;4.700;2023-02-11T07:29:30;28.85;;;22.20;;
17151;SDS011;8691;50.828;4.700;2023-02-11T07:31:57;27.83;;;18.83;;
17151;SDS011;8691;50.828;4.700;2023-02-11T07:34:24;34.33;;;22.90;;
17151;SDS011;8691;50.828;4.700;2023-02-11T07:36:51;36.17;;;24.45;;
17151;SDS011;8691;50.828;4.700;2023-02-11T07:39:17;32.10;;;24.05;;
17151;SDS011;8691;50.828;4.700;2023-02-11T07:41:44;30.57;;;23.87;;
17151;SDS011;8691;50.828;4.700;2023-02-11T07:44:11;32.20;;;24.00;;
17151;SDS011;8691;50.828;4.700;2023-02-11T07:46:39;33.03;;;24.83;;
17151;SDS011;8691;50.828;4.700;2023-02-11T07:49:06;29.93;;;18.50;;
17151;SDS011;8691;50.828;4.700;2023-02-11T07:51:32;34.00;;;23.50;;
17151;SDS011;8691;50.828;4.700;2023-02-11T07:53:59;32.85;;;25.10;;
17151;SDS011;8691;50.828;4.700;2023-02-11T07:56:27;34.10;;;25.38;;
17151;SDS011;8691;50.828;4.700;2023-02-11T07:58:54;35.12;;;24.75;;
17151;SDS011;8691;50.828;4.700;2023-02-11T08:01:22;37.93;;;25.23;;
17151;SDS011;8691;50.828;4.700;2023-02-11T08:03:49;32.13;;;25.17;;
17151;SDS011;8691;50.828;4.700;2023-02-11T08:06:17;36.47;;;25.70;;
17151;SDS011;8691;50.828;4.700;2023-02-11T08:08:44;36.70;;;24.93;;
17151;SDS011;8691;50.828;4.700;2023-02-11T08:11:15;39.07;;;26.43;;
17151;SDS011;8691;50.828;4.700;2023-02-11T08:13:41;36.90;;;25.55;;
17151;SDS011;8691;50.828;4.700;2023-02-11T08:16:08;35.05;;;24.95;;
17151;SDS011;8691;50.828;4.700;2023-02-11T08:18:35;37.72;;;25.65;;
17151;SDS011;8691;50.828;4.700;2023-02-11T08:21:03;39.92;;;26.55;;
17151;SDS011;8691;50.828;4.700;2023-02-11T08:23:32;38.45;;;26.33;;
17151;SDS011;8691;50.828;4.700;2023-02-11T08:26:02;37.47;;;26.30;;
17151;SDS011;8691;50.828;4.700;2023-02-11T08:28:28;38.83;;;26.05;;
17151;SDS011;8691;50.828;4.700;2023-02-11T08:30:55;41.33;;;26.83;;
17151;SDS011;8691;50.828;4.700;2023-02-11T08:33:22;36.13;;;26.70;;
17151;SDS011;8691;50.828;4.700;2023-02-11T08:35:49;37.30;;;26.47;;
17151;SDS011;8691;50.828;4.700;2023-02-11T08:38:16;40.87;;;27.40;;
17151;SDS011;8691;50.828;4.700;2023-02-11T08:40:44;40.37;;;27.10;;
17151;SDS011;8691;50.828;4.700;2023-02-11T08:43:10;40.83;;;27.50;;
17151;SDS011;8691;50.828;4.700;2023-02-11T08:45:37;38.20;;;28.17;;
17151;SDS011;8691;50.828;4.700;2023-02-11T08:48:04;53.13;;;44.57;;
17151;SDS011;8691;50.828;4.700;2023-02-11T08:50:32;42.80;;;29.10;;
17151;SDS011;8691;50.828;4.700;2023-02-11T08:52:59;40.45;;;29.25;;
17151;SDS011;8691;50.828;4.700;2023-02-11T08:55:26;41.12;;;30.40;;
17151;SDS011;8691;50.828;4.700;2023-02-11T08:57:53;40.50;;;28.92;;
17151;SDS011;8691;50.828;4.700;2023-02-11T09:00:20;37.45;;;26.73;;
17151;SDS011;8691;50.828;4.700;2023-02-11T09:02:47;37.80;;;27.77;;
17151;SDS011;8691;50.828;4.700;2023-02-11T09:05:14;41.47;;;29.75;;
17151;SDS011;8691;50.828;4.700;2023-02-11T09:07:41;44.62;;;28.58;;
17151;SDS011;8691;50.828;4.700;2023-02-11T09:10:08;39.08;;;27.77;;
17151;SDS011;8691;50.828;4.700;2023-02-11T09:12:35;39.85;;;27.67;;
17151;SDS011;8691;50.828;4.700;2023-02-11T09:15:02;42.30;;;28.12;;
17151;SDS011;8691;50.828;4.700;2023-02-11T09:17:29;39.97;;;29.08;;
17151;SDS011;8691;50.828;4.700;2023-02-11T09:19:56;43.47;;;28.55;;
17151;SDS011;8691;50.828;4.700;2023-02-11T09:22:23;37.20;;;27.43;;
17151;SDS011;8691;50.828;4.700;2023-02-11T09:24:50;41.80;;;28.77;;
17151;SDS011;8691;50.828;4.700;2023-02-11T09:27:17;40.87;;;28.60;;
17151;SDS011;8691;50.828;4.700;2023-02-11T09:29:44;38.83;;;28.52;;
17151;SDS011;8691;50.828;4.700;2023-02-11T09:32:11;38.78;;;27.75;;
17151;SDS011;8691;50.828;4.700;2023-02-11T09:34:39;37.03;;;27.17;;
17151;SDS011;8691;50.828;4.700;2023-02-11T09:37:06;42.13;;;28.73;;
17151;SDS011;8691;50.828;4.700;2023-02-11T09:39:33;40.47;;;28.20;;
17151;SDS011;8691;50.828;4.700;2023-02-11T09:44:38;40.85;;;28.73;;
17151;SDS011;8691;50.828;4.700;2023-02-11T09:47:16;38.25;;;28.15;;
17151;SDS011;8691;50.828;4.700;2023-02-11T09:49:47;43.13;;;29.27;;
17151;SDS011;8691;50.828;4.700;2023-02-11T09:52:15;39.25;;;28.38;;
17151;SDS011;8691;50.828;4.700;2023-02-11T09:54:44;39.72;;;28.98;;
17151;SDS011;8691;50.828;4.700;2023-02-11T09:57:18;41.80;;;28.50;;
17151;SDS011;8691;50.828;4.700;2023-02-11T09:59:45;41.00;;;28.97;;
17151;SDS011;8691;50.828;4.700;2023-02-11T10:02:16;41.67;;;29.27;;
17151;SDS011;8691;50.828;4.700;2023-02-11T10:04:43;40.03;;;29.00;;
17151;SDS011;8691;50.828;4.700;2023-02-11T10:07:21;43.72;;;29.20;;
17151;SDS011;8691;50.828;4.700;2023-02-11T10:13:18;39.72;;;29.30;;
17151;SDS011;8691;50.828;4.700;2023-02-11T10:21:11;40.47;;;28.83;;
17151;SDS011;8691;50.828;4.700;2023-02-11T10:23:46;42.10;;;30.40;;
17151;SDS011;8691;50.828;4.700;2023-02-11T10:26:13;41.28;;;30.00;;
17151;SDS011;8691;50.828;4.700;2023-02-11T10:28:39;41.83;;;29.50;;
17151;SDS011;8691;50.828;4.700;2023-02-11T10:31:07;40.85;;;30.00;;
17151;SDS011;8691;50.828;4.700;2023-02-11T10:33:42;42.77;;;30.87;;
17151;SDS011;8691;50.828;4.700;2023-02-11T10:36:17;39.72;;;30.30;;
17151;SDS011;8691;50.828;4.700;2023-02-11T10:38:44;41.40;;;30.33;;
17151;SDS011;8691;50.828;4.700;2023-02-11T10:41:21;42.83;;;30.33;;
17151;SDS011;8691;50.828;4.700;2023-02-11T10:43:47;41.47;;;30.33;;
17151;SDS011;8691;50.828;4.700;2023-02-11T10:46:19;43.30;;;29.70;;
17151;SDS011;8691;50.828;4.700;2023-02-11T10:48:45;40.75;;;29.55;;
17151;SDS011;8691;50.828;4.700;2023-02-11T10:53:44;39.93;;;29.00;;
17151;SDS011;8691;50.828;4.700;2023-02-11T10:56:11;41.70;;;29.60;;
17151;SDS011;8691;50.828;4.700;2023-02-11T10:58:43;41.67;;;28.87;;
17151;SDS011;8691;50.828;4.700;2023-02-11T11:01:07;39.40;;;28.67;;
17151;SDS011;8691;50.828;4.700;2023-02-11T11:03:47;41.83;;;29.67;;
17151;SDS011;8691;50.828;4.700;2023-02-11T11:06:13;40.53;;;29.73;;
17151;SDS011;8691;50.828;4.700;2023-02-11T11:08:46;37.42;;;28.25;;
17151;SDS011;8691;50.828;4.700;2023-02-11T11:11:14;42.03;;;30.20;;
17151;SDS011;8691;50.828;4.700;2023-02-11T11:13:40;37.10;;;29.17;;
17151;SDS011;8691;50.828;4.700;2023-02-11T11:16:20;40.57;;;29.97;;
17151;SDS011;8691;50.828;4.700;2023-02-11T11:21:22;35.20;;;24.33;;
17151;SDS011;8691;50.828;4.700;2023-02-11T11:23:49;39.08;;;28.85;;
17151;SDS011;8691;50.828;4.700;2023-02-11T11:26:18;40.67;;;29.50;;
17151;SDS011;8691;50.828;4.700;2023-02-11T11:31:16;40.15;;;28.95;;
17151;SDS011;8691;50.828;4.700;2023-02-11T11:33:44;40.20;;;29.30;;
17151;SDS011;8691;50.828;4.700;2023-02-11T11:36:12;40.72;;;29.83;;
17151;SDS011;8691;50.828;4.700;2023-02-11T11:38:47;36.28;;;29.40;;
17151;SDS011;8691;50.828;4.700;2023-02-11T11:41:18;39.73;;;30.50;;
17151;SDS011;8691;50.828;4.700;2023-02-11T11:46:45;36.30;;;30.30;;
17151;SDS011;8691;50.828;4.700;2023-02-11T11:49:27;39.78;;;29.85;;
17151;SDS011;8691;50.828;4.700;2023-02-11T11:51:57;40.70;;;30.10;;
17151;SDS011;8691;50.828;4.700;2023-02-11T11:54:24;39.83;;;30.77;;
17151;SDS011;8691;50.828;4.700;2023-02-11T11:57:00;37.58;;;29.98;;
17151;SDS011;8691;50.828;4.700;2023-02-11T11:59:23;41.03;;;31.20;;
17151;SDS011;8691;50.828;4.700;2023-02-11T12:10:14;40.88;;;31.20;;
17151;SDS011;8691;50.828;4.700;2023-02-11T12:12:33;72.50;;;57.60;;
17151;SDS011;8691;50.828;4.700;2023-02-11T12:20:20;44.50;;;36.65;;
17151;SDS011;8691;50.828;4.700;2023-02-11T12:28:34;40.05;;;32.12;;
17151;SDS011;8691;50.828;4.700;2023-02-11T12:45:19;34.03;;;24.43;;
17151;SDS011;8691;50.828;4.700;2023-02-11T12:53:15;51.20;;;42.87;;
17151;SDS011;8691;50.828;4.700;2023-02-11T12:55:51;58.53;;;52.83;;
17151;SDS011;8691;50.828;4.700;2023-02-11T12:58:20;38.97;;;30.97;;
17151;SDS011;8691;50.828;4.700;2023-02-11T13:00:55;40.70;;;32.07;;
17151;SDS011;8691;50.828;4.700;2023-02-11T13:03:29;40.85;;;30.38;;
17151;SDS011;8691;50.828;4.700;2023-02-11T13:05:56;38.72;;;30.60;;
17151;SDS011;8691;50.828;4.700;2023-02-11T13:08:26;36.97;;;29.25;;
17151;SDS011;8691;50.828;4.700;2023-02-11T13:10:56;42.25;;;30.33;;
17151;SDS011;8691;50.828;4.700;2023-02-11T13:15:57;37.03;;;29.47;;
17151;SDS011;8691;50.828;4.700;2023-02-11T13:18:44;39.57;;;30.57;;
17151;SDS011;8691;50.828;4.700;2023-02-11T13:21:18;38.40;;;30.35;;
17151;SDS011;8691;50.828;4.700;2023-02-11T13:24:04;38.70;;;29.77;;
17151;SDS011;8691;50.828;4.700;2023-02-11T13:32:25;36.90;;;29.57;;
17151;SDS011;8691;50.828;4.700;2023-02-11T13:34:53;41.57;;;30.90;;
17151;SDS011;8691;50.828;4.700;2023-02-11T13:37:23;36.87;;;29.77;;
17151;SDS011;8691;50.828;4.700;2023-02-11T13:39:56;39.53;;;30.60;;
17151;SDS011;8691;50.828;4.700;2023-02-11T13:42:22;37.30;;;29.50;;
17151;SDS011;8691;50.828;4.700;2023-02-11T13:44:49;35.72;;;29.02;;
17151;SDS011;8691;50.828;4.700;2023-02-11T13:47:24;39.75;;;30.10;;
17151;SDS011;8691;50.828;4.700;2023-02-11T13:49:52;43.40;;;31.73;;
17151;SDS011;8691;50.828;4.700;2023-02-11T13:52:31;39.75;;;31.27;;
17151;SDS011;8691;50.828;4.700;2023-02-11T13:55:00;38.35;;;30.55;;
17151;SDS011;8691;50.828;4.700;2023-02-11T13:57:26;38.88;;;30.83;;
17151;SDS011;8691;50.828;4.700;2023-02-11T13:59:53;39.15;;;30.05;;
17151;SDS011;8691;50.828;4.700;2023-02-11T14:02:21;39.75;;;30.60;;
17151;SDS011;8691;50.828;4.700;2023-02-11T14:10:54;40.37;;;30.83;;
17151;SDS011;8691;50.828;4.700;2023-02-11T14:13:23;41.45;;;31.77;;
17151;SDS011;8691;50.828;4.700;2023-02-11T14:16:05;41.20;;;30.88;;
17151;SDS011;8691;50.828;4.700;2023-02-11T14:21:10;32.40;;;24.03;;
17151;SDS011;8691;50.828;4.700;2023-02-11T14:23:43;41.22;;;30.95;;
17151;SDS011;8691;50.828;4.700;2023-02-11T14:26:23;42.90;;;32.17;;
17151;SDS011;8691;50.828;4.700;2023-02-11T14:28:47;41.83;;;31.45;;
17151;SDS011;8691;50.828;4.700;2023-02-11T14:31:17;42.83;;;30.90;;
17151;SDS011;8691;50.828;4.700;2023-02-11T14:36:40;42.00;;;32.25;;
17151;SDS011;8691;50.828;4.700;2023-02-11T14:39:10;39.30;;;25.97;;
17151;SDS011;8691;50.828;4.700;2023-02-11T14:41:40;40.83;;;31.42;;
17151;SDS011;8691;50.828;4.700;2023-02-11T14:44:10;40.13;;;30.83;;
17151;SDS011;8691;50.828;4.700;2023-02-11T14:46:33;45.40;;;32.03;;
17151;SDS011;8691;50.828;4.700;2023-02-11T14:49:00;40.87;;;30.90;;
17151;SDS011;8691;50.828;4.700;2023-02-11T14:51:30;41.58;;;32.00;;
17151;SDS011;8691;50.828;4.700;2023-02-11T14:53:58;35.65;;;26.40;;
17151;SDS011;8691;50.828;4.700;2023-02-11T14:56:38;42.67;;;32.10;;
17151;SDS011;8691;50.828;4.700;2023-02-11T14:59:17;41.63;;;31.80;;
17151;SDS011;8691;50.828;4.700;2023-02-11T15:01:44;41.38;;;32.03;;
17151;SDS011;8691;50.828;4.700;2023-02-11T15:04:21;42.65;;;33.50;;
17151;SDS011;8691;50.828;4.700;2023-02-11T15:06:48;43.57;;;33.60;;
17151;SDS011;8691;50.828;4.700;2023-02-11T15:11:59;42.05;;;33.78;;
17151;SDS011;8691;50.828;4.700;2023-02-11T15:14:30;44.35;;;32.88;;
17151;SDS011;8691;50.828;4.700;2023-02-11T15:16:56;43.92;;;33.53;;
17151;SDS011;8691;50.828;4.700;2023-02-11T15:19:36;43.27;;;33.63;;
17151;SDS011;8691;50.828;4.700;2023-02-11T15:22:22;44.87;;;33.63;;
17151;SDS011;8691;50.828;4.700;2023-02-11T15:25:07;44.05;;;34.25;;
17151;SDS011;8691;50.828;4.700;2023-02-11T15:27:38;44.40;;;34.33;;
17151;SDS011;8691;50.828;4.700;2023-02-11T15:30:54;46.55;;;34.12;;
17151;SDS011;8691;50.828;4.700;2023-02-11T15:32:47;45.43;;;34.23;;
17151;SDS011;8691;50.828;4.700;2023-02-11T15:35:13;44.97;;;34.28;;
17151;SDS011;8691;50.828;4.700;2023-02-11T15:37:41;43.58;;;34.35;;
17151;SDS011;8691;50.828;4.700;2023-02-11T15:40:09;43.95;;;34.80;;
17151;SDS011;8691;50.828;4.700;2023-02-11T15:42:35;44.67;;;34.17;;
17151;SDS011;8691;50.828;4.700;2023-02-11T15:47:53;43.40;;;35.27;;
17151;SDS011;8691;50.828;4.700;2023-02-11T15:50:20;45.78;;;33.15;;
17151;SDS011;8691;50.828;4.700;2023-02-11T15:52:46;43.08;;;34.72;;
17151;SDS011;8691;50.828;4.700;2023-02-11T15:55:14;42.53;;;34.08;;
17151;SDS011;8691;50.828;4.700;2023-02-11T15:57:50;45.17;;;34.85;;
17151;SDS011;8691;50.828;4.700;2023-02-11T16:00:16;45.10;;;34.93;;
17151;SDS011;8691;50.828;4.700;2023-02-11T16:02:44;46.15;;;35.38;;
17151;SDS011;8691;50.828;4.700;2023-02-11T16:07:58;45.60;;;35.20;;
17151;SDS011;8691;50.828;4.700;2023-02-11T16:10:27;45.00;;;34.20;;
17151;SDS011;8691;50.828;4.700;2023-02-11T16:13:03;44.30;;;34.53;;
17151;SDS011;8691;50.828;4.700;2023-02-11T16:15:36;45.75;;;34.50;;
17151;SDS011;8691;50.828;4.700;2023-02-11T16:17:57;45.03;;;34.70;;
17151;SDS011;8691;50.828;4.700;2023-02-11T16:20:24;46.47;;;36.28;;
17151;SDS011;8691;50.828;4.700;2023-02-11T16:22:51;44.67;;;34.27;;
17151;SDS011;8691;50.828;4.700;2023-02-11T16:25:18;42.97;;;34.77;;
17151;SDS011;8691;50.828;4.700;2023-02-11T16:27:48;41.97;;;34.70;;
17151;SDS011;8691;50.828;4.700;2023-02-11T16:30:22;47.50;;;36.47;;
17151;SDS011;8691;50.828;4.700;2023-02-11T16:32:51;46.95;;;36.35;;
17151;SDS011;8691;50.828;4.700;2023-02-11T16:35:17;45.25;;;35.55;;
17151;SDS011;8691;50.828;4.700;2023-02-11T16:37:44;45.22;;;35.45;;